sensor_id;sensor_type;location;lat;lon;timestamp;P1;durP1;ratioP1;P2;durP2;ratioP2
7324;SDS011;3703;48.016;7.802;2023-07-29T00:01:59;4.47;;;3.00;;
7324;SDS011;3703;48.016;7.802;2023-07-29T00:04:26;3.10;;;2.50;;
7324;SDS011;3703;48.016;7.802;2023-07-29T00:06:53;4.23;;;2.60;;
7324;SDS011;3703;48.016;7.802;2023-07-29T00:09:20;6.37;;;2.90;;
7324;SDS011;3703;48.016;7.802;2023-07-29T00:11:48;5.70;;;3.07;;
7324;SDS011;3703;48.016;7.802;2023-07-29T00:14:15;4.53;;;2.63;;
7324;SDS011;3703;48.016;7.802;2023-07-29T00:16:43;2.83;;;2.50;;
7324;SDS011;3703;48.016;7.802;2023-07-29T00:19:10;3.17;;;2.43;;
7324;SDS011;3703;48.016;7.802;2023-07-29T00:21:37;6.27;;;3.20;;
7324;SDS011;3703;48.016;7.802;2023-07-29T00:24:05;3.57;;;2.60;;
7324;SDS011;3703;48.016;7.802;2023-07-29T00:26:32;4.57;;;2.87;;
7324;SDS011;3703;48.016;7.802;2023-07-29T00:29:00;4.83;;;2.13;;
7324;SDS011;3703;48.016;7.802;2023-07-29T00:31:27;4.17;;;2.10;;
7324;SDS011;3703;48.016;7.802;2023-07-29T00:33:55;2.43;;;1.90;;
7324;SDS011;3703;48.016;7.802;2023-07-29T00:36:23;3.17;;;1.80;;
7324;SDS011;3703;48.016;7.802;2023-07-29T00:38:50;4.27;;;1.80;;
7324;SDS011;3703;48.016;7.802;2023-07-29T00:41:18;3.20;;;1.67;;
7324;SDS011;3703;48.016;7.802;2023-07-29T00:43:45;2.37;;;1.43;;
7324;SDS011;3703;48.016;7.802;2023-07-29T00:46:14;2.73;;;2.00;;
7324;SDS011;3703;48.016;7.802;2023-07-29T00:48:42;2.73;;;1.80;;
7324;SDS011;3703;48.016;7.802;2023-07-29T00:51:09;1.80;;;1.60;;
7324;SDS011;3703;48.016;7.802;2023-07-29T00:53:37;1.83;;;1.60;;
7324;SDS011;3703;48.016;7.802;2023-07-29T00:56:04;2.10;;;1.80;;
7324;SDS011;3703;48.016;7.802;2023-07-29T00:58:31;1.80;;;1.70;;
7324;SDS011;3703;48.016;7.802;2023-07-29T01:00:58;2.57;;;1.90;;
7324;SDS011;3703;48.016;7.802;2023-07-29T01:03:27;4.80;;;1.73;;
7324;SDS011;3703;48.016;7.802;2023-07-29T01:05:58;3.47;;;2.20;;
7324;SDS011;3703;48.016;7.802;2023-07-29T01:08:38;7.20;;;2.20;;
7324;SDS011;3703;48.016;7.802;2023-07-29T01:11:16;2.20;;;1.90;;
7324;SDS011;3703;48.016;7.802;2023-07-29T01:14:00;2.40;;;1.93;;
7324;SDS011;3703;48.016;7.802;2023-07-29T01:16:34;2.20;;;1.50;;
7324;SDS011;3703;48.016;7.802;2023-07-29T01:22:10;4.00;;;2.20;;
7324;SDS011;3703;48.016;7.802;2023-07-29T01:24:39;2.23;;;1.90;;
7324;SDS011;3703;48.016;7.802;2023-07-29T01:27:06;4.03;;;2.07;;
7324;SDS011;3703;48.016;7.802;2023-07-29T01:29:52;2.40;;;1.93;;
7324;SDS011;3703;48.016;7.802;2023-07-29T01:32:40;2.90;;;1.97;;
7324;SDS011;3703;48.016;7.802;2023-07-29T01:35:15;3.20;;;1.70;;
7324;SDS011;3703;48.016;7.802;2023-07-29T01:37:51;2.00;;;1.80;;
7324;SDS011;3703;48.016;7.802;2023-07-29T01:40:41;2.43;;;1.80;;
7324;SDS011;3703;48.016;7.802;2023-07-29T01:43:28;3.50;;;2.20;;
7324;SDS011;3703;48.016;7.802;2023-07-29T01:46:14;2.70;;;2.27;;
7324;SDS011;3703;48.016;7.802;2023-07-29T01:49:00;2.30;;;1.70;;
7324;SDS011;3703;48.016;7.802;2023-07-29T01:51:46;3.50;;;2.50;;
7324;SDS011;3703;48.016;7.802;2023-07-29T01:54:31;4.10;;;2.40;;
7324;SDS011;3703;48.016;7.802;2023-07-29T01:57:18;4.47;;;2.50;;
7324;SDS011;3703;48.016;7.802;2023-07-29T02:00:05;3.37;;;2.43;;
7324;SDS011;3703;48.016;7.802;2023-07-29T02:02:52;2.90;;;2.40;;
7324;SDS011;3703;48.016;7.802;2023-07-29T02:05:38;2.60;;;2.30;;
7324;SDS011;3703;48.016;7.802;2023-07-29T02:08:23;3.87;;;2.20;;
7324;SDS011;3703;48.016;7.802;2023-07-29T02:11:09;4.50;;;2.90;;
7324;SDS011;3703;48.016;7.802;2023-07-29T02:13:56;2.60;;;2.40;;
7324;SDS011;3703;48.016;7.802;2023-07-29T02:16:42;2.70;;;2.13;;
7324;SDS011;3703;48.016;7.802;2023-07-29T02:19:28;3.23;;;1.80;;
7324;SDS011;3703;48.016;7.802;2023-07-29T02:22:14;5.23;;;2.40;;
7324;SDS011;3703;48.016;7.802;2023-07-29T02:25:01;2.90;;;1.97;;
7324;SDS011;3703;48.016;7.802;2023-07-29T02:27:47;4.13;;;1.77;;
7324;SDS011;3703;48.016;7.802;2023-07-29T02:30:34;2.10;;;1.40;;
7324;SDS011;3703;48.016;7.802;2023-07-29T02:33:21;1.60;;;1.17;;
7324;SDS011;3703;48.016;7.802;2023-07-29T02:36:07;2.00;;;1.53;;
7324;SDS011;3703;48.016;7.802;2023-07-29T02:38:53;1.60;;;1.30;;
7324;SDS011;3703;48.016;7.802;2023-07-29T02:41:39;2.10;;;1.40;;
7324;SDS011;3703;48.016;7.802;2023-07-29T02:44:24;1.47;;;1.30;;
7324;SDS011;3703;48.016;7.802;2023-07-29T02:47:11;2.63;;;1.47;;
7324;SDS011;3703;48.016;7.802;2023-07-29T02:49:57;2.13;;;1.50;;
7324;SDS011;3703;48.016;7.802;2023-07-29T02:52:43;2.10;;;1.50;;
7324;SDS011;3703;48.016;7.802;2023-07-29T02:55:28;2.83;;;1.60;;
7324;SDS011;3703;48.016;7.802;2023-07-29T02:57:55;3.50;;;1.57;;
7324;SDS011;3703;48.016;7.802;2023-07-29T03:00:23;2.17;;;1.30;;
7324;SDS011;3703;48.016;7.802;2023-07-29T03:02:51;2.13;;;1.50;;
7324;SDS011;3703;48.016;7.802;2023-07-29T03:05:18;3.53;;;1.40;;
7324;SDS011;3703;48.016;7.802;2023-07-29T03:07:45;2.53;;;1.50;;
7324;SDS011;3703;48.016;7.802;2023-07-29T03:10:12;2.37;;;1.40;;
7324;SDS011;3703;48.016;7.802;2023-07-29T03:12:40;1.30;;;1.20;;
7324;SDS011;3703;48.016;7.802;2023-07-29T03:15:07;1.63;;;1.40;;
7324;SDS011;3703;48.016;7.802;2023-07-29T03:17:35;3.87;;;1.40;;
7324;SDS011;3703;48.016;7.802;2023-07-29T03:20:04;3.37;;;1.67;;
7324;SDS011;3703;48.016;7.802;2023-07-29T03:22:32;1.50;;;1.40;;
7324;SDS011;3703;48.016;7.802;2023-07-29T03:24:59;1.80;;;1.40;;
7324;SDS011;3703;48.016;7.802;2023-07-29T03:27:27;2.43;;;1.50;;
7324;SDS011;3703;48.016;7.802;2023-07-29T03:29:54;1.77;;;1.50;;
7324;SDS011;3703;48.016;7.802;2023-07-29T03:32:21;1.97;;;1.67;;
7324;SDS011;3703;48.016;7.802;2023-07-29T03:34:48;1.40;;;1.30;;
7324;SDS011;3703;48.016;7.802;2023-07-29T03:37:16;5.60;;;1.70;;
7324;SDS011;3703;48.016;7.802;2023-07-29T03:39:44;2.47;;;1.77;;
7324;SDS011;3703;48.016;7.802;2023-07-29T03:42:11;2.77;;;1.67;;
7324;SDS011;3703;48.016;7.802;2023-07-29T03:44:38;2.13;;;1.60;;
7324;SDS011;3703;48.016;7.802;2023-07-29T03:47:05;2.80;;;1.70;;
7324;SDS011;3703;48.016;7.802;2023-07-29T03:49:33;3.40;;;1.40;;
7324;SDS011;3703;48.016;7.802;2023-07-29T03:52:00;1.63;;;1.53;;
7324;SDS011;3703;48.016;7.802;2023-07-29T03:54:28;1.90;;;1.43;;
7324;SDS011;3703;48.016;7.802;2023-07-29T03:56:55;1.60;;;1.50;;
7324;SDS011;3703;48.016;7.802;2023-07-29T03:59:22;2.07;;;1.63;;
7324;SDS011;3703;48.016;7.802;2023-07-29T04:01:49;2.00;;;1.50;;
7324;SDS011;3703;48.016;7.802;2023-07-29T04:04:16;2.10;;;1.80;;
7324;SDS011;3703;48.016;7.802;2023-07-29T04:06:43;3.70;;;1.90;;
7324;SDS011;3703;48.016;7.802;2023-07-29T04:09:11;3.47;;;1.60;;
7324;SDS011;3703;48.016;7.802;2023-07-29T04:11:39;2.63;;;1.70;;
7324;SDS011;3703;48.016;7.802;2023-07-29T04:14:07;2.93;;;1.60;;
7324;SDS011;3703;48.016;7.802;2023-07-29T04:16:34;3.87;;;1.50;;
7324;SDS011;3703;48.016;7.802;2023-07-29T04:19:01;2.00;;;1.70;;
7324;SDS011;3703;48.016;7.802;2023-07-29T04:21:28;1.97;;;1.77;;
7324;SDS011;3703;48.016;7.802;2023-07-29T04:23:55;1.60;;;1.50;;
7324;SDS011;3703;48.016;7.802;2023-07-29T04:26:22;2.37;;;1.70;;
7324;SDS011;3703;48.016;7.802;2023-07-29T04:28:51;4.27;;;1.53;;
7324;SDS011;3703;48.016;7.802;2023-07-29T04:31:18;2.93;;;1.80;;
7324;SDS011;3703;48.016;7.802;2023-07-29T04:33:45;2.07;;;1.60;;
7324;SDS011;3703;48.016;7.802;2023-07-29T04:36:30;3.03;;;1.70;;
7324;SDS011;3703;48.016;7.802;2023-07-29T04:39:16;2.27;;;1.50;;
7324;SDS011;3703;48.016;7.802;2023-07-29T04:41:43;3.07;;;1.60;;
7324;SDS011;3703;48.016;7.802;2023-07-29T04:44:12;2.57;;;1.80;;
7324;SDS011;3703;48.016;7.802;2023-07-29T04:46:39;2.37;;;1.80;;
7324;SDS011;3703;48.016;7.802;2023-07-29T04:49:06;2.60;;;1.70;;
7324;SDS011;3703;48.016;7.802;2023-07-29T04:51:33;3.83;;;1.80;;
7324;SDS011;3703;48.016;7.802;2023-07-29T04:54:02;4.93;;;1.70;;
7324;SDS011;3703;48.016;7.802;2023-07-29T04:56:29;2.80;;;1.73;;
7324;SDS011;3703;48.016;7.802;2023-07-29T04:58:56;2.10;;;1.90;;
7324;SDS011;3703;48.016;7.802;2023-07-29T05:01:25;2.53;;;1.73;;
7324;SDS011;3703;48.016;7.802;2023-07-29T05:03:52;3.87;;;2.10;;
7324;SDS011;3703;48.016;7.802;2023-07-29T05:06:19;3.00;;;2.33;;
7324;SDS011;3703;48.016;7.802;2023-07-29T05:08:46;7.97;;;2.60;;
7324;SDS011;3703;48.016;7.802;2023-07-29T05:11:13;2.00;;;1.80;;
7324;SDS011;3703;48.016;7.802;2023-07-29T05:13:40;3.33;;;1.90;;
7324;SDS011;3703;48.016;7.802;2023-07-29T05:16:09;3.53;;;2.13;;
7324;SDS011;3703;48.016;7.802;2023-07-29T05:18:37;2.30;;;2.07;;
7324;SDS011;3703;48.016;7.802;2023-07-29T05:21:04;2.70;;;2.27;;
7324;SDS011;3703;48.016;7.802;2023-07-29T05:23:33;2.87;;;2.10;;
7324;SDS011;3703;48.016;7.802;2023-07-29T05:26:00;3.20;;;2.27;;
7324;SDS011;3703;48.016;7.802;2023-07-29T05:28:27;3.33;;;2.13;;
7324;SDS011;3703;48.016;7.802;2023-07-29T05:30:54;3.20;;;2.20;;
7324;SDS011;3703;48.016;7.802;2023-07-29T05:33:21;2.37;;;2.00;;
7324;SDS011;3703;48.016;7.802;2023-07-29T05:35:50;2.03;;;1.80;;
7324;SDS011;3703;48.016;7.802;2023-07-29T05:38:18;3.93;;;1.93;;
7324;SDS011;3703;48.016;7.802;2023-07-29T05:40:45;4.30;;;2.30;;
7324;SDS011;3703;48.016;7.802;2023-07-29T05:43:14;3.80;;;2.07;;
7324;SDS011;3703;48.016;7.802;2023-07-29T05:45:41;3.63;;;2.00;;
7324;SDS011;3703;48.016;7.802;2023-07-29T05:48:08;2.97;;;2.27;;
7324;SDS011;3703;48.016;7.802;2023-07-29T05:50:35;4.17;;;2.10;;
7324;SDS011;3703;48.016;7.802;2023-07-29T05:53:04;2.53;;;1.90;;
7324;SDS011;3703;48.016;7.802;2023-07-29T05:55:31;2.30;;;2.10;;
7324;SDS011;3703;48.016;7.802;2023-07-29T05:57:58;2.53;;;1.80;;
7324;SDS011;3703;48.016;7.802;2023-07-29T06:00:26;2.57;;;2.23;;
7324;SDS011;3703;48.016;7.802;2023-07-29T06:02:53;3.23;;;1.80;;
7324;SDS011;3703;48.016;7.802;2023-07-29T06:05:20;4.20;;;1.90;;
7324;SDS011;3703;48.016;7.802;2023-07-29T06:07:47;3.30;;;2.50;;
7324;SDS011;3703;48.016;7.802;2023-07-29T06:10:16;2.17;;;1.97;;
7324;SDS011;3703;48.016;7.802;2023-07-29T06:12:43;2.63;;;1.97;;
7324;SDS011;3703;48.016;7.802;2023-07-29T06:15:10;4.77;;;1.97;;
7324;SDS011;3703;48.016;7.802;2023-07-29T06:17:38;2.43;;;1.80;;
7324;SDS011;3703;48.016;7.802;2023-07-29T06:20:07;3.13;;;2.00;;
7324;SDS011;3703;48.016;7.802;2023-07-29T06:22:35;3.40;;;2.00;;
7324;SDS011;3703;48.016;7.802;2023-07-29T06:25:02;2.10;;;1.90;;
7324;SDS011;3703;48.016;7.802;2023-07-29T06:27:32;2.37;;;1.90;;
7324;SDS011;3703;48.016;7.802;2023-07-29T06:29:59;2.50;;;2.10;;
7324;SDS011;3703;48.016;7.802;2023-07-29T06:32:26;3.97;;;2.00;;
7324;SDS011;3703;48.016;7.802;2023-07-29T06:34:53;2.20;;;2.00;;
7324;SDS011;3703;48.016;7.802;2023-07-29T06:37:20;2.60;;;1.97;;
7324;SDS011;3703;48.016;7.802;2023-07-29T06:39:47;2.70;;;2.03;;
7324;SDS011;3703;48.016;7.802;2023-07-29T06:42:14;3.73;;;2.33;;
7324;SDS011;3703;48.016;7.802;2023-07-29T06:44:43;3.10;;;2.20;;
7324;SDS011;3703;48.016;7.802;2023-07-29T06:47:11;5.13;;;2.40;;
7324;SDS011;3703;48.016;7.802;2023-07-29T06:49:38;2.60;;;2.20;;
7324;SDS011;3703;48.016;7.802;2023-07-29T06:52:05;3.70;;;2.17;;
7324;SDS011;3703;48.016;7.802;2023-07-29T06:54:32;4.30;;;2.00;;
7324;SDS011;3703;48.016;7.802;2023-07-29T06:56:59;2.60;;;1.80;;
7324;SDS011;3703;48.016;7.802;2023-07-29T06:59:27;3.27;;;1.90;;
7324;SDS011;3703;48.016;7.802;2023-07-29T07:01:55;3.40;;;1.90;;
7324;SDS011;3703;48.016;7.802;2023-07-29T07:04:22;2.57;;;2.20;;
7324;SDS011;3703;48.016;7.802;2023-07-29T07:06:49;3.60;;;2.10;;
7324;SDS011;3703;48.016;7.802;2023-07-29T07:09:17;3.10;;;2.17;;
7324;SDS011;3703;48.016;7.802;2023-07-29T07:11:44;3.57;;;2.07;;
7324;SDS011;3703;48.016;7.802;2023-07-29T07:14:11;3.80;;;1.97;;
7324;SDS011;3703;48.016;7.802;2023-07-29T07:16:38;2.93;;;2.00;;
7324;SDS011;3703;48.016;7.802;2023-07-29T07:19:25;3.10;;;2.10;;
7324;SDS011;3703;48.016;7.802;2023-07-29T07:22:11;3.37;;;2.00;;
7324;SDS011;3703;48.016;7.802;2023-07-29T07:24:57;4.97;;;2.50;;
7324;SDS011;3703;48.016;7.802;2023-07-29T07:27:43;3.67;;;2.10;;
7324;SDS011;3703;48.016;7.802;2023-07-29T07:30:28;2.50;;;1.90;;
7324;SDS011;3703;48.016;7.802;2023-07-29T07:32:55;2.40;;;2.03;;
7324;SDS011;3703;48.016;7.802;2023-07-29T07:35:24;4.07;;;2.43;;
7324;SDS011;3703;48.016;7.802;2023-07-29T07:37:51;2.50;;;2.23;;
7324;SDS011;3703;48.016;7.802;2023-07-29T07:40:18;3.63;;;1.90;;
7324;SDS011;3703;48.016;7.802;2023-07-29T07:42:45;2.10;;;1.80;;
7324;SDS011;3703;48.016;7.802;2023-07-29T07:45:12;2.77;;;2.10;;
7324;SDS011;3703;48.016;7.802;2023-07-29T07:47:39;3.27;;;2.10;;
7324;SDS011;3703;48.016;7.802;2023-07-29T07:50:07;4.40;;;1.80;;
7324;SDS011;3703;48.016;7.802;2023-07-29T07:52:36;5.20;;;2.03;;
7324;SDS011;3703;48.016;7.802;2023-07-29T07:55:03;6.23;;;2.10;;
7324;SDS011;3703;48.016;7.802;2023-07-29T07:57:31;3.00;;;1.90;;
7324;SDS011;3703;48.016;7.802;2023-07-29T07:59:58;2.63;;;2.13;;
7324;SDS011;3703;48.016;7.802;2023-07-29T08:02:25;3.63;;;1.60;;
7324;SDS011;3703;48.016;7.802;2023-07-29T08:04:52;2.13;;;1.80;;
7324;SDS011;3703;48.016;7.802;2023-07-29T08:07:19;3.33;;;1.97;;
7324;SDS011;3703;48.016;7.802;2023-07-29T08:09:48;3.03;;;1.83;;
7324;SDS011;3703;48.016;7.802;2023-07-29T08:12:16;2.23;;;1.90;;
7324;SDS011;3703;48.016;7.802;2023-07-29T08:14:43;2.10;;;1.90;;
7324;SDS011;3703;48.016;7.802;2023-07-29T08:17:10;3.70;;;1.70;;
7324;SDS011;3703;48.016;7.802;2023-07-29T08:19:37;2.87;;;1.90;;
7324;SDS011;3703;48.016;7.802;2023-07-29T08:22:05;3.07;;;1.90;;
7324;SDS011;3703;48.016;7.802;2023-07-29T08:24:32;2.33;;;2.13;;
7324;SDS011;3703;48.016;7.802;2023-07-29T08:27:00;4.23;;;2.10;;
7324;SDS011;3703;48.016;7.802;2023-07-29T08:29:27;2.60;;;2.20;;
7324;SDS011;3703;48.016;7.802;2023-07-29T08:31:54;3.67;;;2.40;;
7324;SDS011;3703;48.016;7.802;2023-07-29T08:34:22;3.77;;;2.23;;
7324;SDS011;3703;48.016;7.802;2023-07-29T08:36:49;2.50;;;2.00;;
7324;SDS011;3703;48.016;7.802;2023-07-29T08:39:16;3.20;;;2.13;;
7324;SDS011;3703;48.016;7.802;2023-07-29T08:41:45;3.43;;;2.03;;
7324;SDS011;3703;48.016;7.802;2023-07-29T08:44:20;3.73;;;2.30;;
7324;SDS011;3703;48.016;7.802;2023-07-29T08:46:49;2.83;;;2.40;;
7324;SDS011;3703;48.016;7.802;2023-07-29T08:49:36;5.17;;;2.30;;
7324;SDS011;3703;48.016;7.802;2023-07-29T08:52:23;3.03;;;2.20;;
7324;SDS011;3703;48.016;7.802;2023-07-29T08:55:10;5.37;;;2.27;;
7324;SDS011;3703;48.016;7.802;2023-07-29T08:57:55;2.30;;;1.90;;
7324;SDS011;3703;48.016;7.802;2023-07-29T09:00:25;2.00;;;1.80;;
7324;SDS011;3703;48.016;7.802;2023-07-29T09:02:53;2.20;;;1.90;;
7324;SDS011;3703;48.016;7.802;2023-07-29T09:05:23;2.73;;;2.30;;
7324;SDS011;3703;48.016;7.802;2023-07-29T09:07:50;3.23;;;1.97;;
7324;SDS011;3703;48.016;7.802;2023-07-29T09:10:21;2.40;;;2.17;;
7324;SDS011;3703;48.016;7.802;2023-07-29T09:12:49;3.23;;;2.30;;
7324;SDS011;3703;48.016;7.802;2023-07-29T09:15:27;2.57;;;2.03;;
7324;SDS011;3703;48.016;7.802;2023-07-29T09:17:55;2.43;;;2.20;;
7324;SDS011;3703;48.016;7.802;2023-07-29T09:20:24;3.17;;;2.53;;
7324;SDS011;3703;48.016;7.802;2023-07-29T09:22:52;3.37;;;2.33;;
7324;SDS011;3703;48.016;7.802;2023-07-29T09:25:24;2.73;;;2.40;;
7324;SDS011;3703;48.016;7.802;2023-07-29T09:27:51;2.80;;;2.50;;
7324;SDS011;3703;48.016;7.802;2023-07-29T09:30:19;4.33;;;3.00;;
7324;SDS011;3703;48.016;7.802;2023-07-29T09:32:52;3.77;;;2.63;;
7324;SDS011;3703;48.016;7.802;2023-07-29T09:35:21;2.73;;;2.53;;
7324;SDS011;3703;48.016;7.802;2023-07-29T09:37:50;4.00;;;2.87;;
7324;SDS011;3703;48.016;7.802;2023-07-29T09:40:18;3.53;;;2.53;;
7324;SDS011;3703;48.016;7.802;2023-07-29T09:42:48;3.23;;;2.57;;
7324;SDS011;3703;48.016;7.802;2023-07-29T09:45:21;2.90;;;2.70;;
7324;SDS011;3703;48.016;7.802;2023-07-29T09:47:51;4.47;;;2.67;;
7324;SDS011;3703;48.016;7.802;2023-07-29T09:50:20;3.07;;;2.60;;
7324;SDS011;3703;48.016;7.802;2023-07-29T09:52:50;3.57;;;2.47;;
7324;SDS011;3703;48.016;7.802;2023-07-29T09:55:19;3.07;;;2.73;;
7324;SDS011;3703;48.016;7.802;2023-07-29T09:57:52;3.43;;;2.53;;
7324;SDS011;3703;48.016;7.802;2023-07-29T10:00:22;2.97;;;2.67;;
7324;SDS011;3703;48.016;7.802;2023-07-29T10:02:51;2.93;;;2.63;;
7324;SDS011;3703;48.016;7.802;2023-07-29T10:05:19;4.03;;;2.83;;
7324;SDS011;3703;48.016;7.802;2023-07-29T10:07:48;3.47;;;2.90;;
7324;SDS011;3703;48.016;7.802;2023-07-29T10:10:34;3.20;;;2.90;;
7324;SDS011;3703;48.016;7.802;2023-07-29T10:13:02;4.87;;;3.20;;
7324;SDS011;3703;48.016;7.802;2023-07-29T10:15:48;3.33;;;3.03;;
7324;SDS011;3703;48.016;7.802;2023-07-29T10:18:37;4.20;;;2.97;;
7324;SDS011;3703;48.016;7.802;2023-07-29T10:21:05;3.23;;;2.67;;
7324;SDS011;3703;48.016;7.802;2023-07-29T10:23:34;3.10;;;2.80;;
7324;SDS011;3703;48.016;7.802;2023-07-29T10:26:09;5.20;;;2.33;;
7324;SDS011;3703;48.016;7.802;2023-07-29T10:28:39;3.53;;;2.50;;
7324;SDS011;3703;48.016;7.802;2023-07-29T10:31:30;3.10;;;2.47;;
7324;SDS011;3703;48.016;7.802;2023-07-29T10:34:06;7.40;;;2.80;;
7324;SDS011;3703;48.016;7.802;2023-07-29T10:36:33;4.43;;;2.63;;
7324;SDS011;3703;48.016;7.802;2023-07-29T10:39:01;3.07;;;2.67;;
7324;SDS011;3703;48.016;7.802;2023-07-29T10:44:46;2.60;;;2.40;;
7324;SDS011;3703;48.016;7.802;2023-07-29T10:47:18;3.60;;;2.30;;
7324;SDS011;3703;48.016;7.802;2023-07-29T10:49:50;3.37;;;2.27;;
7324;SDS011;3703;48.016;7.802;2023-07-29T10:52:39;3.27;;;2.40;;
7324;SDS011;3703;48.016;7.802;2023-07-29T10:55:23;5.33;;;2.30;;
7324;SDS011;3703;48.016;7.802;2023-07-29T10:57:52;2.70;;;2.23;;
7324;SDS011;3703;48.016;7.802;2023-07-29T11:00:31;2.70;;;2.20;;
7324;SDS011;3703;48.016;7.802;2023-07-29T11:02:59;4.07;;;2.57;;
7324;SDS011;3703;48.016;7.802;2023-07-29T11:08:21;4.07;;;2.37;;
7324;SDS011;3703;48.016;7.802;2023-07-29T11:11:01;3.60;;;2.67;;
7324;SDS011;3703;48.016;7.802;2023-07-29T11:13:31;2.90;;;2.30;;
7324;SDS011;3703;48.016;7.802;2023-07-29T11:16:00;2.33;;;2.13;;
7324;SDS011;3703;48.016;7.802;2023-07-29T11:18:28;3.00;;;2.20;;
7324;SDS011;3703;48.016;7.802;2023-07-29T11:20:58;3.87;;;1.97;;
7324;SDS011;3703;48.016;7.802;2023-07-29T11:23:29;3.13;;;2.20;;
7324;SDS011;3703;48.016;7.802;2023-07-29T11:25:58;3.67;;;2.10;;
7324;SDS011;3703;48.016;7.802;2023-07-29T11:28:26;2.30;;;2.07;;
7324;SDS011;3703;48.016;7.802;2023-07-29T11:30:54;2.87;;;1.90;;
7324;SDS011;3703;48.016;7.802;2023-07-29T11:33:23;2.33;;;2.03;;
7324;SDS011;3703;48.016;7.802;2023-07-29T11:35:53;2.93;;;2.07;;
7324;SDS011;3703;48.016;7.802;2023-07-29T11:38:22;2.20;;;1.90;;
7324;SDS011;3703;48.016;7.802;2023-07-29T11:40:56;2.43;;;2.00;;
7324;SDS011;3703;48.016;7.802;2023-07-29T11:43:25;2.10;;;1.70;;
7324;SDS011;3703;48.016;7.802;2023-07-29T11:45:53;2.77;;;2.00;;
7324;SDS011;3703;48.016;7.802;2023-07-29T11:48:27;1.90;;;1.80;;
7324;SDS011;3703;48.016;7.802;2023-07-29T11:50:54;2.87;;;2.20;;
7324;SDS011;3703;48.016;7.802;2023-07-29T11:53:24;2.07;;;1.83;;
7324;SDS011;3703;48.016;7.802;2023-07-29T11:55:54;2.27;;;2.00;;
7324;SDS011;3703;48.016;7.802;2023-07-29T11:58:21;1.70;;;1.60;;
7324;SDS011;3703;48.016;7.802;2023-07-29T12:00:48;3.23;;;2.00;;
7324;SDS011;3703;48.016;7.802;2023-07-29T12:03:16;2.57;;;2.20;;
7324;SDS011;3703;48.016;7.802;2023-07-29T12:05:43;2.53;;;1.47;;
7324;SDS011;3703;48.016;7.802;2023-07-29T12:08:11;1.90;;;1.70;;
7324;SDS011;3703;48.016;7.802;2023-07-29T12:10:40;2.00;;;1.80;;
7324;SDS011;3703;48.016;7.802;2023-07-29T12:13:07;2.13;;;1.90;;
7324;SDS011;3703;48.016;7.802;2023-07-29T12:15:37;2.70;;;1.97;;
7324;SDS011;3703;48.016;7.802;2023-07-29T12:18:05;1.97;;;1.77;;
7324;SDS011;3703;48.016;7.802;2023-07-29T12:20:33;3.13;;;1.90;;
7324;SDS011;3703;48.016;7.802;2023-07-29T12:23:00;2.93;;;2.10;;
7324;SDS011;3703;48.016;7.802;2023-07-29T12:25:28;3.90;;;1.93;;
7324;SDS011;3703;48.016;7.802;2023-07-29T12:27:57;2.80;;;2.30;;
7324;SDS011;3703;48.016;7.802;2023-07-29T12:30:29;3.50;;;2.30;;
7324;SDS011;3703;48.016;7.802;2023-07-29T12:32:57;3.07;;;2.27;;
7324;SDS011;3703;48.016;7.802;2023-07-29T12:35:24;2.33;;;1.93;;
7324;SDS011;3703;48.016;7.802;2023-07-29T12:38:02;2.60;;;2.00;;
7324;SDS011;3703;48.016;7.802;2023-07-29T12:40:30;2.17;;;1.93;;
7324;SDS011;3703;48.016;7.802;2023-07-29T12:42:58;6.43;;;2.30;;
7324;SDS011;3703;48.016;7.802;2023-07-29T12:45:25;2.13;;;1.80;;
7324;SDS011;3703;48.016;7.802;2023-07-29T12:47:53;3.63;;;2.23;;
7324;SDS011;3703;48.016;7.802;2023-07-29T12:50:22;4.57;;;2.30;;
7324;SDS011;3703;48.016;7.802;2023-07-29T12:52:49;2.43;;;1.83;;
7324;SDS011;3703;48.016;7.802;2023-07-29T12:55:16;2.40;;;2.00;;
7324;SDS011;3703;48.016;7.802;2023-07-29T12:57:43;1.77;;;1.63;;
7324;SDS011;3703;48.016;7.802;2023-07-29T13:00:12;3.23;;;2.33;;
7324;SDS011;3703;48.016;7.802;2023-07-29T13:02:39;3.03;;;2.20;;
7324;SDS011;3703;48.016;7.802;2023-07-29T13:05:08;2.30;;;1.97;;
7324;SDS011;3703;48.016;7.802;2023-07-29T13:07:37;2.50;;;2.07;;
7324;SDS011;3703;48.016;7.802;2023-07-29T13:10:05;1.97;;;1.77;;
7324;SDS011;3703;48.016;7.802;2023-07-29T13:12:35;2.10;;;1.90;;
7324;SDS011;3703;48.016;7.802;2023-07-29T13:15:02;2.33;;;1.90;;
7324;SDS011;3703;48.016;7.802;2023-07-29T13:17:32;2.83;;;2.07;;
7324;SDS011;3703;48.016;7.802;2023-07-29T13:20:00;3.10;;;2.23;;
7324;SDS011;3703;48.016;7.802;2023-07-29T13:22:27;3.80;;;1.93;;
7324;SDS011;3703;48.016;7.802;2023-07-29T13:24:55;3.13;;;2.03;;
7324;SDS011;3703;48.016;7.802;2023-07-29T13:27:22;2.77;;;2.10;;
7324;SDS011;3703;48.016;7.802;2023-07-29T13:29:50;3.43;;;1.80;;
7324;SDS011;3703;48.016;7.802;2023-07-29T13:32:17;2.07;;;1.87;;
7324;SDS011;3703;48.016;7.802;2023-07-29T13:34:48;2.20;;;2.00;;
7324;SDS011;3703;48.016;7.802;2023-07-29T13:37:16;3.00;;;1.80;;
7324;SDS011;3703;48.016;7.802;2023-07-29T13:39:44;2.43;;;1.93;;
7324;SDS011;3703;48.016;7.802;2023-07-29T13:42:12;2.23;;;1.70;;
7324;SDS011;3703;48.016;7.802;2023-07-29T13:44:39;2.40;;;1.90;;
7324;SDS011;3703;48.016;7.802;2023-07-29T13:47:06;3.37;;;1.80;;
7324;SDS011;3703;48.016;7.802;2023-07-29T13:49:33;2.60;;;1.80;;
7324;SDS011;3703;48.016;7.802;2023-07-29T13:52:01;3.30;;;1.90;;
7324;SDS011;3703;48.016;7.802;2023-07-29T13:54:29;2.37;;;1.77;;
7324;SDS011;3703;48.016;7.802;2023-07-29T13:56:56;2.80;;;2.10;;
7324;SDS011;3703;48.016;7.802;2023-07-29T13:59:23;2.40;;;2.20;;
7324;SDS011;3703;48.016;7.802;2023-07-29T14:01:50;2.33;;;2.10;;
7324;SDS011;3703;48.016;7.802;2023-07-29T14:04:17;3.83;;;2.17;;
7324;SDS011;3703;48.016;7.802;2023-07-29T14:06:44;2.57;;;2.00;;
7324;SDS011;3703;48.016;7.802;2023-07-29T14:09:13;2.07;;;1.80;;
7324;SDS011;3703;48.016;7.802;2023-07-29T14:11:40;2.60;;;2.03;;
7324;SDS011;3703;48.016;7.802;2023-07-29T14:14:07;2.90;;;2.07;;
7324;SDS011;3703;48.016;7.802;2023-07-29T14:16:35;3.50;;;2.37;;
7324;SDS011;3703;48.016;7.802;2023-07-29T14:19:02;2.27;;;2.07;;
7324;SDS011;3703;48.016;7.802;2023-07-29T14:21:29;3.33;;;2.20;;
7324;SDS011;3703;48.016;7.802;2023-07-29T14:23:56;3.07;;;2.00;;
7324;SDS011;3703;48.016;7.802;2023-07-29T14:26:25;3.07;;;2.30;;
7324;SDS011;3703;48.016;7.802;2023-07-29T14:28:52;5.47;;;2.60;;
7324;SDS011;3703;48.016;7.802;2023-07-29T14:31:22;5.03;;;2.63;;
7324;SDS011;3703;48.016;7.802;2023-07-29T14:33:50;3.77;;;2.30;;
7324;SDS011;3703;48.016;7.802;2023-07-29T14:36:17;2.40;;;2.20;;
7324;SDS011;3703;48.016;7.802;2023-07-29T14:38:44;3.87;;;2.73;;
7324;SDS011;3703;48.016;7.802;2023-07-29T14:41:11;4.63;;;3.00;;
7324;SDS011;3703;48.016;7.802;2023-07-29T14:43:40;6.00;;;5.40;;
7324;SDS011;3703;48.016;7.802;2023-07-29T14:46:07;4.53;;;3.30;;
7324;SDS011;3703;48.016;7.802;2023-07-29T14:48:35;3.70;;;3.17;;
7324;SDS011;3703;48.016;7.802;2023-07-29T14:51:02;4.97;;;2.73;;
7324;SDS011;3703;48.016;7.802;2023-07-29T14:53:30;7.67;;;3.00;;
7324;SDS011;3703;48.016;7.802;2023-07-29T14:55:57;7.00;;;3.37;;
7324;SDS011;3703;48.016;7.802;2023-07-29T14:58:24;11.80;;;3.70;;
7324;SDS011;3703;48.016;7.802;2023-07-29T15:00:53;7.80;;;4.43;;
7324;SDS011;3703;48.016;7.802;2023-07-29T15:03:20;4.97;;;4.40;;
7324;SDS011;3703;48.016;7.802;2023-07-29T15:05:47;5.43;;;4.50;;
7324;SDS011;3703;48.016;7.802;2023-07-29T15:08:15;7.07;;;3.30;;
7324;SDS011;3703;48.016;7.802;2023-07-29T15:10:44;6.07;;;4.00;;
7324;SDS011;3703;48.016;7.802;2023-07-29T15:13:12;5.67;;;2.90;;
7324;SDS011;3703;48.016;7.802;2023-07-29T15:15:40;5.77;;;3.90;;
7324;SDS011;3703;48.016;7.802;2023-07-29T15:18:09;4.10;;;3.10;;
7324;SDS011;3703;48.016;7.802;2023-07-29T15:20:36;5.73;;;3.43;;
7324;SDS011;3703;48.016;7.802;2023-07-29T15:23:03;6.47;;;3.30;;
7324;SDS011;3703;48.016;7.802;2023-07-29T15:25:31;5.83;;;4.67;;
7324;SDS011;3703;48.016;7.802;2023-07-29T15:27:58;6.10;;;3.73;;
7324;SDS011;3703;48.016;7.802;2023-07-29T15:30:25;5.50;;;3.30;;
7324;SDS011;3703;48.016;7.802;2023-07-29T15:32:52;4.67;;;3.00;;
7324;SDS011;3703;48.016;7.802;2023-07-29T15:35:22;5.40;;;4.03;;
7324;SDS011;3703;48.016;7.802;2023-07-29T15:37:49;4.10;;;3.60;;
7324;SDS011;3703;48.016;7.802;2023-07-29T15:40:16;5.10;;;3.30;;
7324;SDS011;3703;48.016;7.802;2023-07-29T15:42:44;6.20;;;4.00;;
7324;SDS011;3703;48.016;7.802;2023-07-29T15:45:11;7.03;;;5.27;;